Time;durP1;ratioP1;P1;durP2;ratioP2;P2;SDS_P1;SDS_P2;PMS_P1;PMS_P2;Temp;Humidity;BMP_temperature;BMP_pressure;BME280_temperature;BME280_humidity;BME280_pressure;Samples;Min_cycle;Max_cycle;Signal;HPM_P1;HPM_P2
2022/02/20 00:01:20;;;;;;;104.53;58.38;;;;;;;9.89;70.97;101563.88;5092796;28;20553;-60
2022/02/20 00:03:46;;;;;;;116.07;62.47;;;;;;;9.93;70.96;101555.00;5094887;28;20093;-60
2022/02/20 00:06:16;;;;;;;115.20;63.40;;;;;;;9.91;70.98;101549.78;5095205;28;20054;-59
2022/02/20 00:08:44;;;;;;;107.03;61.60;;;;;;;9.92;71.35;101551.50;5094985;28;20525;-59
2022/02/20 00:11:11;;;;;;;109.75;61.15;;;;;;;9.96;71.27;101552.25;5095199;28;20044;-60
2022/02/20 00:13:37;;;;;;;106.43;61.63;;;;;;;9.98;71.44;101555.66;5095062;28;20048;-60
2022/02/20 00:16:04;;;;;;;101.07;59.63;;;;;;;9.99;71.66;101540.78;5095011;28;20503;-60
2022/02/20 00:18:31;;;;;;;106.00;60.80;;;;;;;10.00;71.75;101542.47;5094914;28;20048;-60
2022/02/20 00:20:58;;;;;;;111.65;62.05;;;;;;;10.03;71.80;101540.59;5094418;28;20048;-60
2022/02/20 00:23:24;;;;;;;109.43;61.83;;;;;;;10.03;72.11;101535.34;5094903;28;20101;-60
2022/02/20 00:25:51;;;;;;;107.40;61.53;;;;;;;10.02;72.14;101538.88;5094508;28;20044;-59
2022/02/20 00:28:18;;;;;;;105.40;60.80;;;;;;;10.04;72.33;101541.44;5094733;28;20545;-59
2022/02/20 00:30:45;;;;;;;105.15;61.38;;;;;;;10.05;72.35;101537.91;5094781;28;20138;-59
2022/02/20 00:33:12;;;;;;;109.63;61.17;;;;;;;10.06;72.42;101535.22;5094822;28;20048;-59
2022/02/20 00:35:40;;;;;;;115.35;63.72;;;;;;;10.06;72.59;101543.06;5092960;28;20052;-60
2022/02/20 00:38:08;;;;;;;111.93;61.63;;;;;;;10.05;72.65;101533.50;5094221;28;20105;-59
2022/02/20 00:40:34;;;;;;;106.88;60.85;;;;;;;10.09;72.81;101535.09;5094362;28;20077;-59
2022/02/20 00:43:02;;;;;;;112.38;61.15;;;;;;;10.15;72.64;101536.59;5094219;28;20481;-60
2022/02/20 00:45:29;;;;;;;110.15;65.00;;;;;;;10.16;72.63;101533.06;5094617;28;20074;-60
2022/02/20 00:47:56;;;;;;;112.13;62.55;;;;;;;10.15;72.97;101528.72;5094270;28;20040;-59
2022/02/20 00:50:24;;;;;;;113.25;64.18;;;;;;;10.15;72.83;101533.97;5094385;28;20484;-60
2022/02/20 00:52:51;;;;;;;109.55;63.30;;;;;;;10.17;72.88;101541.75;5093682;27;20044;-59
2022/02/20 00:55:18;;;;;;;113.22;62.67;;;;;;;10.13;73.08;101530.53;5094338;28;20197;-60
2022/02/20 00:57:45;;;;;;;112.05;64.32;;;;;;;10.17;73.11;101537.38;5094162;28;20055;-59
2022/02/20 01:00:13;;;;;;;111.68;63.10;;;;;;;10.18;73.24;101532.97;5094193;28;20097;-60
2022/02/20 01:02:40;;;;;;;106.82;62.53;;;;;;;10.20;73.12;101532.00;5094064;28;20044;-60
2022/02/20 01:05:08;;;;;;;109.55;61.65;;;;;;;10.19;73.45;101534.69;5093931;28;20450;-60
2022/02/20 01:07:35;;;;;;;110.50;62.67;;;;;;;10.21;73.37;101540.72;5094035;28;20044;-59
2022/02/20 01:10:04;;;;;;;116.45;65.65;;;;;;;10.23;73.56;101544.13;5093402;28;20476;-60
2022/02/20 01:12:31;;;;;;;110.18;63.13;;;;;;;10.24;73.42;101537.97;5094090;28;20118;-59
2022/02/20 01:14:57;;;;;;;115.30;62.70;;;;;;;10.26;73.55;101537.00;5093571;28;20086;-60
2022/02/20 01:17:25;;;;;;;112.20;63.85;;;;;;;10.27;73.54;101532.59;5093616;28;20047;-59
2022/02/20 01:19:53;;;;;;;111.35;63.45;;;;;;;10.27;73.58;101532.59;5093284;28;20457;-60
2022/02/20 01:22:23;;;;;;;112.38;64.57;;;;;;;10.27;73.61;101530.84;5094016;28;20071;-59
2022/02/20 01:24:49;;;;;;;112.78;62.97;;;;;;;10.27;73.49;101529.97;5093423;28;20083;-59
2022/02/20 01:27:17;;;;;;;109.10;63.35;;;;;;;10.27;73.69;101527.34;5092922;27;20047;-59
2022/02/20 01:29:43;;;;;;;111.85;62.85;;;;;;;10.25;73.86;101527.41;5107175;28;20097;-60
2022/02/20 01:32:10;;;;;;;108.38;62.72;;;;;;;10.26;73.89;101523.03;5113675;28;20048;-60
2022/02/20 01:34:36;;;;;;;108.40;61.97;;;;;;;10.23;73.93;101521.41;5113666;28;20047;-60
2022/02/20 01:37:03;;;;;;;108.05;63.17;;;;;;;10.20;74.28;101524.13;5113673;28;20055;-60
2022/02/20 01:39:30;;;;;;;104.97;62.88;;;;;;;10.18;74.16;101527.75;5093298;28;20435;-60
2022/02/20 01:41:57;;;;;;;105.88;63.35;;;;;;;10.18;74.24;101528.56;5092819;28;20097;-60
2022/02/20 01:44:24;;;;;;;115.95;63.05;;;;;;;10.18;74.33;101525.97;5093143;28;20048;-60
2022/02/20 01:46:52;;;;;;;109.93;63.47;;;;;;;10.18;74.39;101525.13;5093148;28;20080;-60
2022/02/20 01:49:20;;;;;;;111.30;63.00;;;;;;;10.19;74.46;101529.44;5093114;28;20044;-60
2022/02/20 01:51:47;;;;;;;108.07;62.92;;;;;;;10.20;74.38;101528.53;5093066;28;20089;-60
2022/02/20 01:54:13;;;;;;;108.90;62.00;;;;;;;10.20;74.45;101525.91;5093161;28;20075;-60
2022/02/20 01:56:40;;;;;;;110.32;63.95;;;;;;;10.18;74.43;101528.56;5112330;28;20100;-60
2022/02/20 01:59:07;;;;;;;113.20;64.10;;;;;;;10.17;74.63;101537.38;5103322;27;20044;-60
2022/02/20 02:01:33;;;;;;;110.80;64.10;;;;;;;10.18;74.47;101535.59;5092888;28;20109;-60
2022/02/20 02:04:00;;;;;;;109.18;61.97;;;;;;;10.19;74.54;101534.69;5092730;28;20458;-60
2022/02/20 02:06:28;;;;;;;118.40;67.25;;;;;;;10.20;74.57;101531.16;5092964;28;20101;-60
2022/02/20 02:08:55;;;;;;;110.93;63.95;;;;;;;10.20;74.58;101529.38;5092800;28;20055;-60
2022/02/20 02:11:22;;;;;;;114.15;65.25;;;;;;;10.20;74.78;101520.66;5092498;28;20044;-60
2022/02/20 02:13:49;;;;;;;111.55;63.85;;;;;;;10.20;74.59;101526.75;5093533;28;20044;-60
2022/02/20 02:16:18;;;;;;;110.18;63.72;;;;;;;10.20;74.70;101526.75;5113231;28;20434;-60
2022/02/20 02:18:45;;;;;;;111.38;62.13;;;;;;;10.20;74.81;101533.78;5112871;28;20088;-60
2022/02/20 02:21:12;;;;;;;114.15;64.10;;;;;;;10.20;74.77;101524.13;5113052;28;20513;-60
2022/02/20 02:23:38;;;;;;;101.50;60.40;;;;;;;10.20;74.71;101524.13;5113065;28;20044;-61
2022/02/20 02:26:06;;;;;;;109.18;61.35;;;;;;;10.20;74.92;101526.75;5112776;28;20047;-60
2022/02/20 02:28:34;;;;;;;102.10;60.25;;;;;;;10.19;74.76;101530.28;5112832;28;20052;-60
2022/02/20 02:31:04;;;;;;;110.10;62.20;;;;;;;10.22;74.61;101529.31;5101144;28;20052;-60
2022/02/20 02:33:33;;;;;;;110.35;62.00;;;;;;;10.20;74.83;101526.75;5092586;28;20043;-60
2022/02/20 02:36:01;;;;;;;109.72;61.90;;;;;;;10.21;74.71;101532.84;5092441;28;20048;-60
2022/02/20 02:38:29;;;;;;;109.53;62.05;;;;;;;10.20;74.85;101532.00;5092650;28;20089;-60
2022/02/20 02:40:59;;;;;;;114.82;64.72;;;;;;;10.20;74.68;101532.00;5092390;28;20077;-60
2022/02/20 02:43:27;;;;;;;112.43;62.58;;;;;;;10.21;74.79;101522.34;5091866;28;20054;-60
2022/02/20 02:45:54;;;;;;;106.00;61.88;;;;;;;10.21;74.78;101527.59;5091794;28;20168;-60
2022/02/20 02:48:21;;;;;;;105.07;60.08;;;;;;;10.19;74.85;101522.41;5091633;28;20048;-60
2022/02/20 02:50:48;;;;;;;110.68;61.92;;;;;;;10.11;75.22;101524.53;5091681;28;20489;-60
2022/02/20 02:53:15;;;;;;;110.25;63.45;;;;;;;10.15;75.04;101513.00;5092530;28;20052;-60
2022/02/20 02:55:46;;;;;;;113.00;64.03;;;;;;;10.17;74.99;101515.53;5092348;28;20048;-60
2022/02/20 02:58:20;;;;;;;115.40;64.03;;;;;;;10.19;75.06;101511.09;5093140;28;20044;-60
2022/02/20 03:00:48;;;;;;;112.03;63.72;;;;;;;10.19;75.08;101508.47;5095888;28;20044;-60
2022/02/20 03:03:15;;;;;;;108.53;64.60;;;;;;;10.18;75.13;101504.13;5096410;28;20459;-60
2022/02/20 03:05:42;;;;;;;112.70;64.90;;;;;;;10.19;75.11;101503.22;5096364;28;20044;-61
2022/02/20 03:08:09;;;;;;;112.75;63.80;;;;;;;10.18;75.20;101510.22;5096309;28;20097;-60
2022/02/20 03:10:35;;;;;;;113.63;64.68;;;;;;;10.20;75.16;101516.25;5096236;28;20048;-60
2022/02/20 03:13:03;;;;;;;112.65;64.07;;;;;;;10.17;75.24;101516.41;5095981;28;20125;-60
2022/02/20 03:15:29;;;;;;;106.68;62.28;;;;;;;10.14;75.26;101516.53;5096199;28;20044;-60
2022/02/20 03:17:56;;;;;;;108.97;63.60;;;;;;;10.17;75.32;101521.66;5096045;28;20079;-60
2022/02/20 03:20:22;;;;;;;113.60;63.25;;;;;;;10.19;75.28;101524.22;5095733;28;20055;-60
2022/02/20 03:22:49;;;;;;;109.05;62.65;;;;;;;10.18;75.46;101525.13;5095894;28;20439;-60
2022/02/20 03:25:16;;;;;;;109.85;63.53;;;;;;;10.17;75.49;101526.03;5096133;28;20044;-60
2022/02/20 03:27:42;;;;;;;106.20;62.67;;;;;;;10.18;75.21;101531.19;5095926;28;20044;-60
2022/02/20 03:30:09;;;;;;;105.97;61.10;;;;;;;10.18;75.26;101535.59;5095978;28;20052;-60
2022/02/20 03:32:36;;;;;;;109.55;63.72;;;;;;;10.19;75.15;101532.91;5095570;28;20048;-60
2022/02/20 03:35:03;;;;;;;107.35;62.75;;;;;;;10.19;75.29;101530.28;5095722;28;20063;-60
2022/02/20 03:37:30;;;;;;;111.43;65.03;;;;;;;10.19;75.32;101532.91;5096973;28;20052;-60
2022/02/20 03:39:57;;;;;;;111.32;64.78;;;;;;;10.19;75.23;101530.28;5095559;28;20048;-60
2022/02/20 03:42:24;;;;;;;115.13;64.10;;;;;;;10.21;75.27;101531.09;5095801;28;20164;-60
2022/02/20 03:44:50;;;;;;;109.70;63.10;;;;;;;10.21;75.33;101536.34;5095746;28;20048;-60
2022/02/20 03:47:17;;;;;;;105.10;61.88;;;;;;;10.20;75.38;101542.50;5095554;28;20105;-60
2022/02/20 03:49:43;;;;;;;108.35;63.28;;;;;;;10.20;75.47;101541.66;5095369;28;20040;-60
2022/02/20 03:52:10;;;;;;;107.32;59.83;;;;;;;10.19;75.45;101547.81;5095605;28;20454;-60
2022/02/20 03:54:37;;;;;;;109.20;61.05;;;;;;;10.11;75.50;101535.88;5096194;27;20044;-60
2022/02/20 03:57:03;;;;;;;112.25;61.90;;;;;;;10.11;75.53;101546.34;5115597;28;20108;-60
2022/02/20 03:59:30;;;;;;;108.57;62.55;;;;;;;10.12;75.33;101542.81;5115928;28;20051;-60
2022/02/20 04:01:57;;;;;;;110.25;62.75;;;;;;;10.12;75.43;101549.84;5114591;28;20047;-60
2022/02/20 04:04:23;;;;;;;111.70;63.45;;;;;;;10.13;75.44;101551.53;5111368;28;20044;-60
2022/02/20 04:06:51;;;;;;;110.90;62.50;;;;;;;10.13;75.36;101557.66;5112072;28;20460;-60
2022/02/20 04:09:18;;;;;;;106.88;62.22;;;;;;;10.13;75.48;101562.03;5111290;28;20043;-60
2022/02/20 04:11:45;;;;;;;105.43;61.30;;;;;;;10.12;75.44;101555.94;5111367;28;20060;-60
2022/02/20 04:14:11;;;;;;;108.00;59.80;;;;;;;10.11;75.35;101554.22;5095075;28;20044;-60
2022/02/20 04:16:38;;;;;;;109.00;61.70;;;;;;;10.10;75.36;101552.50;5091643;28;20093;-60
2022/02/20 04:19:05;;;;;;;105.93;60.45;;;;;;;10.11;75.22;101556.00;5091389;28;20054;-60
2022/02/20 04:21:32;;;;;;;99.55;61.53;;;;;;;10.10;75.32;101554.28;5091580;28;20404;-60
2022/02/20 04:23:59;;;;;;;103.40;60.53;;;;;;;10.10;75.42;101559.53;5091491;28;20059;-60
2022/02/20 04:26:26;;;;;;;112.55;63.13;;;;;;;10.06;75.32;101548.31;5091136;28;20512;-60
2022/02/20 04:28:53;;;;;;;106.90;60.17;;;;;;;10.06;75.26;101550.09;5090949;28;20490;-60
2022/02/20 04:31:20;;;;;;;104.85;60.25;;;;;;;10.04;75.27;101536.19;5091071;28;20129;-60
2022/02/20 04:33:47;;;;;;;108.13;62.03;;;;;;;10.04;75.40;101538.81;5091280;28;20051;-60
2022/02/20 04:36:14;;;;;;;104.25;60.85;;;;;;;10.01;75.42;101542.41;5091305;28;20044;-60
2022/02/20 04:38:40;;;;;;;102.38;59.70;;;;;;;9.99;75.47;101543.41;5091292;28;20044;-60
2022/02/20 04:41:07;;;;;;;101.65;60.10;;;;;;;9.97;75.45;101549.53;5091176;28;20059;-60
2022/02/20 04:43:34;;;;;;;102.78;59.70;;;;;;;9.95;75.32;101561.88;5091226;28;20098;-60
2022/02/20 04:46:01;;;;;;;104.72;60.38;;;;;;;9.96;75.32;101567.97;5091358;28;20059;-60
2022/02/20 04:48:28;;;;;;;102.57;60.97;;;;;;;9.94;75.23;101560.16;5090812;28;20048;-60
2022/02/20 04:50:54;;;;;;;94.10;56.35;;;;;;;9.93;75.34;101550.59;5090774;28;20052;-60
2022/02/20 04:53:21;;;;;;;102.65;59.58;;;;;;;9.92;75.19;101550.66;5091246;28;20101;-60
2022/02/20 04:55:48;;;;;;;103.93;58.63;;;;;;;9.92;75.28;101546.25;5090757;28;20484;-60
2022/02/20 04:58:14;;;;;;;100.60;58.17;;;;;;;9.92;75.02;101551.50;5090686;28;20052;-60
2022/02/20 05:00:41;;;;;;;105.35;61.00;;;;;;;9.93;75.04;101557.63;5090748;28;20133;-60
2022/02/20 05:03:08;;;;;;;107.43;61.85;;;;;;;9.92;75.09;101556.75;5090912;28;20531;-60
2022/02/20 05:05:37;;;;;;;106.50;62.33;;;;;;;9.92;75.11;101559.38;5090504;28;20048;-60
2022/02/20 05:08:05;;;;;;;106.22;62.25;;;;;;;9.93;74.88;101555.00;5090883;28;20086;-60
2022/02/20 05:10:32;;;;;;;107.10;60.90;;;;;;;9.93;75.05;101576.81;5090543;28;20436;-60
2022/02/20 05:12:58;;;;;;;110.80;62.40;;;;;;;9.92;75.14;101585.59;5090018;28;20557;-60
2022/02/20 05:15:25;;;;;;;116.05;64.57;;;;;;;9.95;75.08;101593.34;5090566;28;20052;-60
2022/02/20 05:17:52;;;;;;;112.45;64.88;;;;;;;10.00;74.95;101595.75;5090277;28;20048;-60
2022/02/20 05:20:19;;;;;;;110.05;63.45;;;;;;;10.01;74.92;101602.72;5103284;28;20445;-60
2022/02/20 05:22:46;;;;;;;111.32;64.80;;;;;;;10.01;75.02;101607.97;5110205;28;20385;-60
2022/02/20 05:25:12;;;;;;;112.03;63.05;;;;;;;10.01;74.98;101596.63;5110615;28;20048;-60
2022/02/20 05:27:43;;;;;;;108.32;62.90;;;;;;;10.00;75.11;101594.94;5110689;28;20386;-60
2022/02/20 05:30:16;;;;;;;108.20;62.55;;;;;;;9.97;75.15;101588.88;5110357;28;20051;-61
2022/02/20 05:32:43;;;;;;;109.20;62.42;;;;;;;9.97;75.15;101596.75;5110189;28;20093;-60
2022/02/20 05:35:10;;;;;;;105.50;61.17;;;;;;;9.98;75.20;101597.63;5110811;28;20511;-61
2022/02/20 05:37:48;;;;;;;108.75;61.72;;;;;;;9.97;75.27;101595.91;5089788;28;20044;-61
2022/02/20 05:40:17;;;;;;;111.55;64.07;;;;;;;9.95;75.29;101600.34;5089899;28;20514;-61
2022/02/20 05:42:44;;;;;;;112.68;64.22;;;;;;;9.95;75.26;101601.22;5089749;28;20097;-60
2022/02/20 05:45:10;;;;;;;117.18;64.82;;;;;;;9.95;75.46;101602.97;5090005;28;20121;-61
2022/02/20 05:47:38;;;;;;;102.30;60.97;;;;;;;9.93;75.35;101597.78;5090050;28;20484;-61
2022/02/20 05:50:08;;;;;;;110.05;61.15;;;;;;;9.92;75.42;101593.44;5089902;28;20070;-61
2022/02/20 05:52:35;;;;;;;112.78;62.65;;;;;;;9.90;75.38;101597.06;5097796;28;20495;-60
2022/02/20 05:55:03;;;;;;;112.60;62.35;;;;;;;9.87;75.37;101602.44;5109986;28;20039;-61
2022/02/20 05:57:56;;;;;;;99.57;58.72;;;;;;;9.84;75.39;101603.41;5110183;28;20121;-61
2022/02/20 06:00:31;;;;;;;105.03;59.35;;;;;;;9.83;75.28;101606.94;5109424;28;20100;-60
2022/02/20 06:02:58;;;;;;;103.28;59.75;;;;;;;9.83;75.26;101604.31;5109981;28;20047;-60
2022/02/20 06:05:25;;;;;;;112.65;62.65;;;;;;;9.84;75.25;101600.78;5109973;28;20043;-60
2022/02/20 06:07:51;;;;;;;106.13;59.17;;;;;;;9.84;75.17;101618.25;5109795;28;20070;-60
2022/02/20 06:10:18;;;;;;;103.45;60.28;;;;;;;9.81;75.17;101616.63;5093289;28;20055;-60
2022/02/20 06:12:45;;;;;;;103.57;58.97;;;;;;;9.79;75.23;101602.75;5089185;28;20573;-60
2022/02/20 06:15:12;;;;;;;103.18;60.55;;;;;;;9.78;75.00;101601.88;5089474;28;20101;-60
2022/02/20 06:17:39;;;;;;;111.43;59.65;;;;;;;9.76;75.23;101598.47;5089369;28;20048;-61
2022/02/20 06:20:06;;;;;;;104.10;61.13;;;;;;;9.73;75.30;101616.94;5089129;28;20477;-60
2022/02/20 06:22:32;;;;;;;108.57;60.60;;;;;;;9.71;75.32;101617.91;5089131;28;20718;-60
2022/02/20 06:24:59;;;;;;;100.38;58.22;;;;;;;9.66;75.25;101615.44;5089377;28;20044;-60
2022/02/20 06:27:26;;;;;;;100.40;57.70;;;;;;;9.64;75.30;101619.91;5089019;28;20081;-60
2022/02/20 06:30:13;;;;;;;111.47;61.53;;;;;;;9.65;75.03;101619.00;5089083;28;20040;-60
2022/02/20 06:32:40;;;;;;;103.38;58.60;;;;;;;9.66;74.99;101623.31;5088367;28;20048;-60
2022/02/20 06:35:06;;;;;;;102.32;58.15;;;;;;;9.67;74.75;101629.41;5089184;28;20081;-60
2022/02/20 06:37:33;;;;;;;100.57;57.33;;;;;;;9.61;74.77;101633.97;5089090;28;20043;-60
2022/02/20 06:40:00;;;;;;;105.03;57.38;;;;;;;9.61;74.73;101626.13;5088882;28;20048;-60
2022/02/20 06:42:26;;;;;;;98.85;55.97;;;;;;;9.60;74.43;101632.28;5088826;28;20055;-60
2022/02/20 06:44:53;;;;;;;94.95;55.13;;;;;;;9.60;74.42;101640.13;5089002;28;20454;-60
2022/02/20 06:47:20;;;;;;;94.05;54.13;;;;;;;9.60;74.31;101640.13;5088915;28;20048;-60
2022/02/20 06:49:47;;;;;;;91.00;53.97;;;;;;;9.61;74.12;101643.59;5089094;28;20040;-60
2022/02/20 06:52:13;;;;;;;92.82;55.25;;;;;;;9.63;74.07;101640.00;5089131;28;20066;-60
2022/02/20 06:54:40;;;;;;;100.78;57.10;;;;;;;9.64;74.06;101652.19;5089080;28;20089;-60
2022/02/20 06:57:07;;;;;;;96.88;55.83;;;;;;;9.69;73.99;101656.41;5088382;28;20044;-60
2022/02/20 06:59:34;;;;;;;95.13;55.70;;;;;;;9.69;73.90;101659.03;5088221;28;20040;-60
2022/02/20 07:02:00;;;;;;;95.70;58.08;;;;;;;9.71;73.94;101662.44;5088504;28;20075;-61
2022/02/20 07:04:28;;;;;;;107.50;61.67;;;;;;;9.74;74.08;101668.44;5088641;28;20562;-60
2022/02/20 07:06:55;;;;;;;100.03;60.72;;;;;;;9.76;73.91;101661.38;5088787;28;20048;-60
2022/02/20 07:09:22;;;;;;;98.22;57.95;;;;;;;9.77;73.89;101665.69;5088394;28;20078;-61
2022/02/20 07:11:48;;;;;;;106.85;59.22;;;;;;;9.80;74.05;101664.72;5088272;28;20060;-60
2022/02/20 07:14:15;;;;;;;98.07;58.78;;;;;;;9.83;73.98;101677.72;5088242;28;20545;-60
2022/02/20 07:16:42;;;;;;;107.72;61.38;;;;;;;9.87;73.96;101673.22;5070285;28;20047;-60
2022/02/20 07:19:08;;;;;;;105.30;61.78;;;;;;;9.89;73.87;101674.00;5088985;28;20478;-60
2022/02/20 07:21:35;;;;;;;106.07;60.97;;;;;;;9.90;73.99;101679.19;5088555;28;20047;-60
2022/02/20 07:24:05;;;;;;;109.60;61.88;;;;;;;9.90;74.02;101675.69;5088603;28;20040;-60
2022/02/20 07:26:32;;;;;;;104.25;59.95;;;;;;;9.90;74.09;101668.72;5088402;28;20044;-60
2022/02/20 07:28:59;;;;;;;109.53;61.88;;;;;;;9.92;74.12;101677.34;5088357;28;20040;-61
2022/02/20 07:31:28;;;;;;;110.10;63.55;;;;;;;9.96;74.17;101673.69;5088877;28;20044;-60
2022/02/20 07:33:57;;;;;;;110.07;62.75;;;;;;;10.00;74.17;101669.19;5088841;28;20059;-60
2022/02/20 07:36:23;;;;;;;100.60;59.70;;;;;;;10.03;74.17;101678.69;5088833;28;20048;-60
2022/02/20 07:38:50;;;;;;;105.72;62.65;;;;;;;10.02;74.20;101677.84;5088626;28;20097;-61
2022/02/20 07:41:17;;;;;;;106.47;63.03;;;;;;;10.04;74.40;101677.78;5088418;28;20048;-60
2022/02/20 07:43:48;;;;;;;110.72;64.82;;;;;;;10.07;74.43;101669.81;5088405;28;20109;-60
2022/02/20 07:46:16;;;;;;;112.18;62.90;;;;;;;10.10;74.43;101677.56;5092421;28;20044;-61
2022/02/20 07:48:45;;;;;;;118.40;64.60;;;;;;;10.13;74.10;101675.66;5091625;27;20048;-61
2022/02/20 07:51:13;;;;;;;113.95;63.05;;;;;;;10.19;74.19;101677.19;5092208;28;20047;-60
2022/02/20 07:53:41;;;;;;;114.13;63.85;;;;;;;10.24;74.25;101672.59;5092155;28;20101;-60
2022/02/20 07:56:09;;;;;;;109.07;66.30;;;;;;;10.28;74.14;101675.94;5091772;28;20045;-60
2022/02/20 07:58:37;;;;;;;113.00;64.07;;;;;;;10.34;74.18;101675.72;5101516;27;20492;-60
2022/02/20 08:01:06;;;;;;;120.03;67.82;;;;;;;10.41;74.05;101671.97;5105941;28;20126;-60
2022/02/20 08:03:34;;;;;;;118.47;66.82;;;;;;;10.45;74.07;101670.06;5091636;28;20063;-60
2022/02/20 08:06:01;;;;;;;118.88;69.97;;;;;;;10.47;74.11;101676.09;5097097;27;20423;-60
2022/02/20 08:08:28;;;;;;;111.80;64.70;;;;;;;10.52;74.31;101676.75;5092198;28;20059;-60
2022/02/20 08:11:04;;;;;;;118.35;66.13;;;;;;;10.57;74.33;101674.78;5091884;28;20556;-60
2022/02/20 08:13:31;;;;;;;114.47;66.10;;;;;;;10.59;74.36;101675.59;5091431;28;20056;-60
2022/02/20 08:15:58;;;;;;;113.90;65.38;;;;;;;10.62;74.23;101680.69;5091818;28;20117;-60
2022/02/20 08:18:25;;;;;;;116.90;66.78;;;;;;;10.67;74.37;101675.25;5091987;28;20184;-60
2022/02/20 08:20:51;;;;;;;123.22;70.53;;;;;;;10.76;74.14;101679.28;5107183;28;20416;-60
2022/02/20 08:23:38;;;;;;;127.20;71.78;;;;;;;10.85;74.08;101678.88;5091208;28;20509;-60
2022/02/20 08:26:06;;;;;;;123.28;71.28;;;;;;;10.97;73.79;101689.78;5091219;28;20048;-60
2022/02/20 08:28:32;;;;;;;130.77;72.07;;;;;;;11.08;73.60;101677.91;5091266;28;20074;-60
2022/02/20 08:30:59;;;;;;;126.28;71.32;;;;;;;11.25;73.33;101687.66;5091469;28;20415;-60
2022/02/20 08:33:27;;;;;;;130.68;73.72;;;;;;;11.39;72.99;101683.56;5091504;28;20044;-60
2022/02/20 08:36:13;;;;;;;129.55;73.60;;;;;;;11.34;73.13;101688.16;5091179;28;20097;-61
2022/02/20 08:38:40;;;;;;;131.20;74.65;;;;;;;11.25;73.51;101671.88;5101026;28;20035;-59
2022/02/20 08:41:07;;;;;;;136.60;75.95;;;;;;;11.26;73.35;101676.22;5111277;28;20122;-60
2022/02/20 08:43:34;;;;;;;140.93;80.22;;;;;;;11.21;73.49;101674.72;5111337;28;20047;-61
2022/02/20 08:46:01;;;;;;;139.18;77.20;;;;;;;11.27;73.75;101672.69;5111438;28;20119;-61
2022/02/20 08:48:33;;;;;;;135.10;75.82;;;;;;;11.33;73.62;101674.16;5111265;28;20104;-61
2022/02/20 08:51:00;;;;;;;136.95;77.25;;;;;;;11.41;73.24;101663.31;5111302;28;20506;-61
2022/02/20 08:53:27;;;;;;;135.25;76.78;;;;;;;11.74;72.54;101660.06;5110921;28;20052;-60
2022/02/20 08:55:53;;;;;;;123.35;72.22;;;;;;;11.91;72.00;101667.16;5101302;28;20036;-60
2022/02/20 08:58:20;;;;;;;137.15;75.95;;;;;;;12.04;71.99;101662.19;5090424;28;20047;-60
2022/02/20 09:00:47;;;;;;;137.80;76.35;;;;;;;12.28;71.04;101657.53;5090786;28;20048;-62
2022/02/20 09:03:13;;;;;;;133.95;76.15;;;;;;;12.49;70.39;101652.94;5091541;28;20048;-62
2022/02/20 09:05:41;;;;;;;139.48;78.38;;;;;;;12.50;70.74;101648.56;5099611;28;20052;-62
2022/02/20 09:08:07;;;;;;;137.63;77.82;;;;;;;12.25;71.50;101650.63;5092740;28;20098;-62
2022/02/20 09:10:34;;;;;;;140.95;79.78;;;;;;;12.15;71.88;101656.41;5108489;28;20051;-62
2022/02/20 09:13:00;;;;;;;129.50;73.68;;;;;;;12.13;71.59;101647.75;5110032;28;20077;-63
2022/02/20 09:15:27;;;;;;;138.05;78.43;;;;;;;12.19;71.36;101655.31;5109134;28;20043;-62
2022/02/20 09:17:54;;;;;;;133.43;75.53;;;;;;;12.28;71.13;101649.63;5108773;28;20053;-62
2022/02/20 09:20:21;;;;;;;144.65;77.70;;;;;;;12.34;70.98;101658.97;5108992;28;20036;-62
2022/02/20 09:22:48;;;;;;;138.50;76.70;;;;;;;12.23;71.09;101651.63;5109140;28;20460;-62
2022/02/20 09:25:14;;;;;;;142.00;77.38;;;;;;;12.11;71.36;101662.75;5110459;28;20048;-65
2022/02/20 09:27:42;;;;;;;140.38;77.68;;;;;;;12.08;71.61;101666.38;5100754;28;20052;-65
2022/02/20 09:30:10;;;;;;;135.70;75.32;;;;;;;12.16;71.26;101676.53;5100037;28;20158;-64
2022/02/20 09:32:36;;;;;;;138.07;78.63;;;;;;;12.10;71.38;101675.06;5108998;28;20109;-64
2022/02/20 09:35:04;;;;;;;161.35;95.22;;;;;;;12.02;71.56;101682.44;5109113;28;20124;-64
2022/02/20 09:37:30;;;;;;;154.40;88.70;;;;;;;12.01;71.95;101678.97;5108926;28;20044;-64
2022/02/20 09:39:57;;;;;;;159.48;93.30;;;;;;;11.87;71.88;101689.25;5109112;28;20043;-65
2022/02/20 09:42:26;;;;;;;185.57;105.80;;;;;;;11.87;72.10;101690.13;5109111;28;20048;-63
2022/02/20 09:44:56;;;;;;;145.38;83.20;;;;;;;11.98;71.97;101694.06;5107637;28;20044;-67
2022/02/20 09:47:28;;;;;;;158.40;96.40;;;;;;;12.06;71.55;101699.78;5109049;28;20105;-63
2022/02/20 09:50:00;;;;;;;158.90;87.45;;;;;;;12.20;71.39;101694.75;5108548;28;20043;-64
2022/02/20 09:52:28;;;;;;;248.23;136.32;;;;;;;12.23;70.81;101684.06;5106581;28;20055;-63
2022/02/20 09:54:55;;;;;;;261.38;148.27;;;;;;;12.23;71.00;101680.59;5108397;28;20039;-62
2022/02/20 09:57:22;;;;;;;207.27;112.55;;;;;;;12.24;71.12;101692.81;5108040;28;20507;-64
2022/02/20 09:59:49;;;;;;;242.30;145.90;;;;;;;12.13;71.42;101700.38;5105497;27;20044;-63
2022/02/20 10:02:20;;;;;;;172.38;105.32;;;;;;;12.17;71.12;101702.75;5108031;28;20057;-65
2022/02/20 10:04:55;;;;;;;145.27;84.47;;;;;;;12.18;71.09;101701.84;5106563;28;20050;-64
2022/02/20 10:07:33;;;;;;;135.60;79.72;;;;;;;12.28;70.64;101699.63;5107793;28;20126;-64
2022/02/20 10:10:12;;;;;;;168.57;101.93;;;;;;;12.29;70.50;101708.38;5108748;28;20075;-64
2022/02/20 10:12:40;;;;;;;150.25;85.45;;;;;;;12.44;70.55;101706.78;5108785;28;20063;-64
2022/02/20 10:15:41;;;;;;;137.10;78.80;;;;;;;12.56;70.10;101688.59;5108743;28;20047;-64
2022/02/20 10:18:19;;;;;;;151.57;87.63;;;;;;;12.88;68.87;101693.16;5058056;28;20628;-64
2022/02/20 10:20:51;;;;;;;164.65;93.03;;;;;;;13.30;67.71;101691.00;5105957;28;20046;-63
2022/02/20 10:23:17;;;;;;;165.82;94.95;;;;;;;13.88;66.10;101689.69;5108080;28;20101;-62
2022/02/20 10:25:45;;;;;;;150.93;87.47;;;;;;;14.37;64.77;101686.03;5108234;28;20059;-63
2022/02/20 10:28:12;;;;;;;142.02;80.10;;;;;;;14.07;65.64;101683.34;5108518;28;20112;-64
2022/02/20 10:30:39;;;;;;;154.15;90.90;;;;;;;14.32;64.96;101688.97;5108177;28;20048;-64
2022/02/20 10:33:24;;;;;;;144.13;85.85;;;;;;;14.57;64.58;101674.31;5107240;28;20051;-65
2022/02/20 10:35:54;;;;;;;136.07;74.40;;;;;;;14.76;63.88;101679.41;5108861;28;20059;-64
2022/02/20 10:38:23;;;;;;;132.95;76.32;;;;;;;14.64;64.40;101672.16;5108777;28;20442;-64
2022/02/20 10:40:54;;;;;;;133.63;77.95;;;;;;;15.17;62.96;101667.25;5108554;28;20105;-64
2022/02/20 10:43:37;;;;;;;140.70;82.93;;;;;;;14.93;63.29;101661.69;5108273;28;20484;-64
2022/02/20 10:46:20;;;;;;;129.02;72.68;;;;;;;15.04;62.58;101664.53;5107915;28;20434;-63
2022/02/20 10:48:49;;;;;;;128.05;73.07;;;;;;;15.29;61.78;101669.16;5105081;28;20722;-65
2022/02/20 10:51:17;;;;;;;129.95;73.95;;;;;;;15.47;61.79;101669.81;5105375;28;20076;-65
2022/02/20 10:53:48;;;;;;;116.88;67.93;;;;;;;15.38;61.16;101667.75;5107956;28;20048;-65
2022/02/20 10:56:15;;;;;;;122.28;69.38;;;;;;;15.46;61.49;101661.97;5107839;28;20081;-64
2022/02/20 10:58:46;;;;;;;136.05;79.82;;;;;;;15.19;61.58;101650.38;5104746;28;20092;-63
2022/02/20 11:01:39;;;;;;;129.95;76.72;;;;;;;15.27;61.31;101647.25;5096600;28;20609;-62
2022/02/20 11:04:10;;;;;;;128.10;72.50;;;;;;;15.44;60.76;101650.63;5094021;28;20104;-63
2022/02/20 11:06:38;;;;;;;110.47;61.33;;;;;;;15.75;59.85;101648.69;5108337;28;20482;-64
2022/02/20 11:09:06;;;;;;;108.10;57.38;;;;;;;16.42;58.75;101640.81;5108100;28;20081;-63